createdAt,value
2019-02-07T00:00:21.907Z,5.76
2019-02-07T00:02:55.460Z,5.70
2019-02-07T00:05:29.236Z,5.66
2019-02-07T00:08:02.470Z,5.67
2019-02-07T00:10:35.246Z,5.61
2019-02-07T00:13:09.422Z,5.59
2019-02-07T00:15:46.701Z,5.52
2019-02-07T00:18:20.956Z,5.51
2019-02-07T00:20:55.238Z,5.46
2019-02-07T00:23:30.464Z,5.41
2019-02-07T00:26:05.310Z,5.42
2019-02-07T00:28:38.713Z,5.43
2019-02-07T00:31:13.035Z,5.39
2019-02-07T00:33:45.869Z,5.40
2019-02-07T00:36:18.959Z,5.36
2019-02-07T00:38:52.672Z,5.28
2019-02-07T00:41:25.588Z,5.24
2019-02-07T00:43:58.803Z,5.17
2019-02-07T00:46:32.658Z,5.13
2019-02-07T00:49:06.264Z,5.11
2019-02-07T00:51:38.996Z,5.08
2019-02-07T00:54:12.375Z,5.07
2019-02-07T00:56:45.137Z,5.07
2019-02-07T00:59:17.999Z,5.05
2019-02-07T01:01:54.122Z,5.04
2019-02-07T01:04:29.060Z,5.05
2019-02-07T01:07:03.717Z,5.05
2019-02-07T01:09:36.819Z,5.04
2019-02-07T01:12:09.830Z,5.03
2019-02-07T01:14:42.503Z,5.01
2019-02-07T01:17:15.926Z,5.01
2019-02-07T01:19:48.792Z,5.01
2019-02-07T01:22:21.719Z,5.01
2019-02-07T01:24:55.471Z,5.03
2019-02-07T01:27:29.111Z,4.99
2019-02-07T01:30:03.616Z,4.95
2019-02-07T01:32:37.925Z,4.91
2019-02-07T01:35:10.784Z,4.83
2019-02-07T01:37:43.478Z,4.78
2019-02-07T01:40:18.676Z,4.74
2019-02-07T01:42:52.219Z,4.69
2019-02-07T01:45:25.062Z,4.64
2019-02-07T01:47:58.340Z,4.61
2019-02-07T01:50:31.088Z,4.59
2019-02-07T01:53:04.234Z,4.57
2019-02-07T01:55:37.520Z,4.56
2019-02-07T01:58:10.221Z,4.55
2019-02-07T02:00:43.097Z,4.55
2019-02-07T02:03:17.677Z,4.54
2019-02-07T02:05:50.471Z,4.50
2019-02-07T02:08:24.328Z,4.49
2019-02-07T02:10:58.039Z,4.47
2019-02-07T02:13:30.796Z,4.44
2019-02-07T02:16:03.718Z,4.45
2019-02-07T02:18:37.013Z,4.47
2019-02-07T02:21:10.976Z,4.48
2019-02-07T02:23:43.895Z,4.49
2019-02-07T02:26:18.261Z,4.50
2019-02-07T02:28:51.917Z,4.51
2019-02-07T02:31:24.600Z,4.53
2019-02-07T02:33:58.042Z,4.54
2019-02-07T02:36:30.911Z,4.54
2019-02-07T02:39:09.394Z,4.54
2019-02-07T02:41:42.140Z,4.55
2019-02-07T02:44:15.390Z,4.57
2019-02-07T02:46:48.079Z,4.57
2019-02-07T02:49:21.131Z,4.56
2019-02-07T02:51:54.464Z,4.58
2019-02-07T02:54:36.010Z,4.57
2019-02-07T02:57:08.774Z,4.57
2019-02-07T02:59:43.030Z,4.55
2019-02-07T03:02:34.128Z,4.54
2019-02-07T03:05:18.951Z,4.53
2019-02-07T03:08:17.167Z,4.55
2019-02-07T03:10:56.334Z,4.55
2019-02-07T03:13:49.356Z,4.57
2019-02-07T03:16:27.996Z,4.57
2019-02-07T03:19:13.832Z,4.58
2019-02-07T03:21:55.554Z,4.60
2019-02-07T03:24:34.193Z,4.63
2019-02-07T03:27:33.492Z,4.67
2019-02-07T03:30:31.346Z,4.74
2019-02-07T03:33:30.814Z,4.80
2019-02-07T03:36:29.628Z,4.88
2019-02-07T03:39:17.353Z,4.93
2019-02-07T03:42:09.593Z,4.98
2019-02-07T03:44:58.966Z,5.00
2019-02-07T03:47:38.916Z,5.05
2019-02-07T03:50:17.640Z,5.10
2019-02-07T03:53:09.873Z,5.14
2019-02-07T03:56:14.195Z,5.16
2019-02-07T03:59:20.975Z,5.22
2019-02-07T04:02:17.522Z,5.27
2019-02-07T04:05:24.500Z,5.32
2019-02-07T04:08:03.325Z,5.33
2019-02-07T04:10:48.866Z,5.34
2019-02-07T04:13:43.192Z,5.34
2019-02-07T04:16:39.855Z,5.34
2019-02-07T04:19:18.187Z,5.30
2019-02-07T04:22:01.880Z,5.31
2019-02-07T04:24:54.326Z,5.29
2019-02-07T04:27:49.687Z,5.28
2019-02-07T04:30:28.305Z,5.27
2019-02-07T04:33:06.597Z,5.31
2019-02-07T04:35:51.330Z,5.34
2019-02-07T04:38:29.498Z,5.37
2019-02-07T04:41:27.611Z,5.38
2019-02-07T04:44:13.354Z,5.41
2019-02-07T04:47:05.540Z,5.42
2019-02-07T04:49:55.377Z,5.43
2019-02-07T04:52:46.945Z,5.44
2019-02-07T04:55:46.507Z,5.46
2019-02-07T04:58:28.505Z,5.47
2019-02-07T05:01:07.013Z,5.50
2019-02-07T05:03:51.636Z,5.53
2019-02-07T05:06:37.473Z,5.52
2019-02-07T05:09:24.230Z,5.53
2019-02-07T05:12:02.346Z,5.50
2019-02-07T05:14:59.282Z,5.49
2019-02-07T05:17:37.560Z,5.50
2019-02-07T05:20:27.582Z,5.51
2019-02-07T05:23:06.200Z,5.48
2019-02-07T05:25:59.367Z,5.48
2019-02-07T05:28:41.769Z,5.53
2019-02-07T05:31:31.545Z,5.58
2019-02-07T05:34:21.625Z,5.63
2019-02-07T05:37:00.188Z,5.65
2019-02-07T05:39:38.417Z,5.70
2019-02-07T05:42:16.899Z,5.72
2019-02-07T05:45:10.391Z,5.69
2019-02-07T05:48:10.717Z,5.67
2019-02-07T05:51:08.764Z,5.66
2019-02-07T05:54:04.011Z,5.69
2019-02-07T05:56:49.898Z,5.72
2019-02-07T05:59:28.272Z,5.81
2019-02-07T06:02:12.527Z,5.86
2019-02-07T06:05:08.027Z,5.90
2019-02-07T06:08:06.158Z,5.97
2019-02-07T06:10:48.410Z,6.04
2019-02-07T06:13:43.103Z,6.09
2019-02-07T06:16:37.596Z,6.08
2019-02-07T06:19:30.150Z,6.09
2019-02-07T06:22:24.532Z,6.16
2019-02-07T06:25:09.367Z,6.20
2019-02-07T06:28:02.878Z,6.20
2019-02-07T06:31:03.591Z,6.21
2019-02-07T06:33:59.676Z,6.19
2019-02-07T06:36:41.781Z,6.20
2019-02-07T06:39:20.252Z,6.22
2019-02-07T06:42:07.465Z,6.23
2019-02-07T06:44:56.428Z,6.23
2019-02-07T06:47:46.205Z,6.24
2019-02-07T06:50:26.182Z,6.27
2019-02-07T06:53:19.215Z,6.28
2019-02-07T06:55:59.671Z,6.30
2019-02-07T06:58:46.895Z,6.32
2019-02-07T07:01:34.332Z,6.35
2019-02-07T07:04:33.122Z,6.30
2019-02-07T07:07:39.899Z,6.22
2019-02-07T07:10:29.422Z,6.14
2019-02-07T07:13:08.749Z,6.11
2019-02-07T07:15:46.807Z,6.11
2019-02-07T07:18:44.889Z,6.12
2019-02-07T07:21:50.234Z,6.13
2019-02-07T07:24:45.953Z,6.14
2019-02-07T07:27:39.216Z,6.14
2019-02-07T07:30:45.994Z,6.11
2019-02-07T07:33:43.721Z,6.12
2019-02-07T07:36:30.537Z,6.14
2019-02-07T07:39:26.198Z,6.13
2019-02-07T07:42:18.840Z,6.14
2019-02-07T07:44:58.492Z,6.15
2019-02-07T07:47:37.524Z,6.18
2019-02-07T07:50:36.514Z,6.20
2019-02-07T07:53:19.735Z,6.24
2019-02-07T07:56:01.904Z,6.22
2019-02-07T07:58:58.886Z,6.24
2019-02-07T08:01:37.012Z,6.27
2019-02-07T08:04:17.335Z,6.33
2019-02-07T08:07:01.605Z,6.35
2019-02-07T08:09:59.778Z,6.36
2019-02-07T08:12:50.393Z,6.42
2019-02-07T08:15:33.611Z,6.44
2019-02-07T08:18:24.826Z,6.43
2019-02-07T08:21:04.193Z,6.43
2019-02-07T08:23:58.447Z,6.43
2019-02-07T08:26:52.693Z,6.44
2019-02-07T08:29:36.654Z,6.44
2019-02-07T08:32:22.464Z,6.46
2019-02-07T08:35:09.994Z,6.42
2019-02-07T08:37:58.163Z,6.35
2019-02-07T08:40:52.420Z,6.32
2019-02-07T08:43:51.620Z,6.31
2019-02-07T08:46:44.476Z,6.31
2019-02-07T08:49:35.276Z,6.32
2019-02-07T08:52:22.346Z,6.36
2019-02-07T08:55:16.334Z,6.41
2019-02-07T08:58:10.763Z,6.49
2019-02-07T09:01:05.263Z,6.56
2019-02-07T09:03:55.405Z,6.61
2019-02-07T09:06:47.889Z,6.70
2019-02-07T09:09:38.328Z,6.77
2019-02-07T09:12:24.173Z,6.80
2019-02-07T09:15:08.180Z,6.85
2019-02-07T09:17:52.475Z,6.89
2019-02-07T09:20:44.710Z,6.95
2019-02-07T09:23:49.950Z,7.02
2019-02-07T09:26:43.113Z,7.06
2019-02-07T09:29:35.408Z,7.11
2019-02-07T09:32:24.984Z,7.18
2019-02-07T09:35:09.488Z,7.23
2019-02-07T09:37:57.182Z,7.25
2019-02-07T09:40:52.022Z,7.32
2019-02-07T09:43:34.021Z,7.38
2019-02-07T09:46:27.868Z,7.50
2019-02-07T09:49:15.629Z,7.72
2019-02-07T09:52:12.789Z,7.92
2019-02-07T09:55:12.748Z,8.05
2019-02-07T09:58:07.907Z,8.12
2019-02-07T10:00:59.415Z,8.18
2019-02-07T10:03:38.465Z,8.27
2019-02-07T10:06:21.507Z,8.39
2019-02-07T10:09:01.065Z,8.55
2019-02-07T10:11:41.588Z,8.64
2019-02-07T10:14:20.096Z,8.62
2019-02-07T10:17:16.034Z,8.55
2019-02-07T10:20:10.521Z,8.48
2019-02-07T10:23:23.648Z,8.47
2019-02-07T10:26:05.394Z,8.50
2019-02-07T10:28:54.611Z,8.55
2019-02-07T10:31:47.667Z,8.60
2019-02-07T10:34:27.997Z,8.66
2019-02-07T10:37:07.182Z,8.71
2019-02-07T10:39:49.721Z,8.75
2019-02-07T10:42:45.087Z,8.79
2019-02-07T10:45:52.070Z,8.96
2019-02-07T10:48:45.737Z,9.06
2019-02-07T10:51:43.886Z,9.06
2019-02-07T10:54:22.786Z,9.11
2019-02-07T10:57:16.589Z,9.13
2019-02-07T11:00:22.883Z,9.13
2019-02-07T11:03:17.169Z,9.10
2019-02-07T11:06:11.721Z,9.02
2019-02-07T11:09:05.540Z,9.01
2019-02-07T11:11:55.776Z,9.03
2019-02-07T11:14:51.860Z,9.15
2019-02-07T11:17:40.003Z,9.27
2019-02-07T11:20:24.609Z,9.31
2019-02-07T11:23:13.586Z,9.20
2019-02-07T11:25:54.272Z,9.16
2019-02-07T11:28:38.645Z,9.20
2019-02-07T11:31:36.003Z,9.22
2019-02-07T11:34:27.361Z,9.26
2019-02-07T11:37:31.129Z,9.26
2019-02-07T11:40:18.042Z,9.32
2019-02-07T11:43:03.282Z,9.42
2019-02-07T11:45:59.245Z,9.56
2019-02-07T11:48:53.666Z,9.67
2019-02-07T11:51:51.506Z,9.55
2019-02-07T11:54:38.930Z,9.48
2019-02-07T11:57:35.570Z,9.53
2019-02-07T12:00:32.522Z,9.61
2019-02-07T12:03:17.795Z,9.70
2019-02-07T12:06:12.453Z,9.69
2019-02-07T12:08:51.387Z,9.70
2019-02-07T12:11:48.686Z,9.80
2019-02-07T12:14:54.817Z,9.96
2019-02-07T12:17:56.196Z,9.95
2019-02-07T12:20:43.927Z,9.87
2019-02-07T12:23:35.661Z,9.80
2019-02-07T12:26:22.049Z,9.91
2019-02-07T12:29:08.149Z,10.28
2019-02-07T12:31:54.040Z,10.54
2019-02-07T12:34:32.550Z,10.53
2019-02-07T12:37:27.866Z,10.37
2019-02-07T12:40:08.120Z,10.19
2019-02-07T12:43:03.131Z,10.09
2019-02-07T12:46:13.905Z,9.95
2019-02-07T12:49:14.542Z,10.00
2019-02-07T12:52:06.364Z,9.99
2019-02-07T12:54:51.782Z,9.95
2019-02-07T12:57:49.201Z,9.91
2019-02-07T13:00:45.100Z,10.19
2019-02-07T13:03:49.655Z,10.17
2019-02-07T13:06:28.320Z,10.36
2019-02-07T13:09:25.123Z,10.47
2019-02-07T13:12:12.651Z,10.45
2019-02-07T13:14:58.017Z,10.75
2019-02-07T13:17:54.057Z,10.71
2019-02-07T13:20:33.652Z,10.67
2019-02-07T13:23:26.581Z,10.82
2019-02-07T13:26:22.523Z,10.71
2019-02-07T13:29:16.674Z,10.42
2019-02-07T13:32:05.062Z,10.38
2019-02-07T13:34:46.903Z,10.33
2019-02-07T13:37:41.708Z,10.23
2019-02-07T13:40:43.989Z,10.22
2019-02-07T13:43:28.437Z,10.41
2019-02-07T13:46:25.387Z,10.73
2019-02-07T13:49:25.723Z,11.05
2019-02-07T13:52:13.908Z,11.19
2019-02-07T13:54:59.501Z,11.04
2019-02-07T13:57:40.763Z,10.79
2019-02-07T14:00:25.853Z,10.71
2019-02-07T14:03:23.868Z,10.65
2019-02-07T14:06:21.229Z,10.68
2019-02-07T14:09:05.886Z,10.62
2019-02-07T14:12:02.835Z,10.52
2019-02-07T14:14:54.167Z,10.37
2019-02-07T14:17:44.814Z,10.35
2019-02-07T14:20:26.014Z,10.62
2019-02-07T14:23:19.296Z,10.63
2019-02-07T14:26:09.131Z,10.49
2019-02-07T14:28:56.577Z,10.31
2019-02-07T14:31:53.463Z,10.16
2019-02-07T14:34:59.510Z,10.00
2019-02-07T14:37:49.398Z,9.89
2019-02-07T14:40:33.861Z,9.87
2019-02-07T14:43:33.366Z,9.89
2019-02-07T14:46:25.960Z,9.90
2019-02-07T14:48:59.598Z,9.94
2019-02-07T14:51:33.661Z,9.93
2019-02-07T14:54:08.818Z,9.93
2019-02-07T14:56:43.328Z,9.94
2019-02-07T14:59:17.783Z,9.94
2019-02-07T15:01:57.858Z,9.91
2019-02-07T15:04:34.699Z,9.88
2019-02-07T15:07:09.607Z,9.85
2019-02-07T15:09:45.961Z,9.83
2019-02-07T15:12:22.316Z,9.82
2019-02-07T15:14:57.951Z,9.79
2019-02-07T15:17:33.269Z,9.78
2019-02-07T15:20:08.447Z,9.90
2019-02-07T15:22:41.562Z,10.01
2019-02-07T15:25:14.693Z,9.97
2019-02-07T15:27:47.802Z,9.90
2019-02-07T15:30:22.374Z,9.83
2019-02-07T15:32:58.762Z,9.77
2019-02-07T15:35:40.237Z,9.75
2019-02-07T15:38:14.770Z,9.77
2019-02-07T15:40:50.375Z,9.75
2019-02-07T15:43:23.574Z,9.71
2019-02-07T15:45:57.857Z,9.66
2019-02-07T15:48:31.470Z,9.58
2019-02-07T15:51:06.077Z,9.55
2019-02-07T15:53:40.711Z,9.55
2019-02-07T15:56:16.061Z,9.53
2019-02-07T15:59:00.717Z,9.54
2019-02-07T16:01:52.957Z,9.53
2019-02-07T16:04:41.437Z,9.58
2019-02-07T16:07:19.332Z,9.59
2019-02-07T16:09:53.972Z,9.53
2019-02-07T16:12:27.469Z,9.49
2019-02-07T16:15:05.337Z,9.49
2019-02-07T16:17:38.345Z,9.48
2019-02-07T16:20:17.677Z,9.50
2019-02-07T16:22:54.075Z,9.45
2019-02-07T16:25:33.360Z,9.43
2019-02-07T16:28:08.294Z,9.37
2019-02-07T16:30:44.413Z,9.29
2019-02-07T16:33:17.224Z,9.18
2019-02-07T16:35:51.512Z,9.13
2019-02-07T16:38:27.615Z,9.09
2019-02-07T16:41:00.713Z,9.04
2019-02-07T16:43:35.999Z,8.95
2019-02-07T16:46:11.679Z,8.84
2019-02-07T16:48:47.211Z,8.76
2019-02-07T16:51:20.965Z,8.69
2019-02-07T16:53:55.512Z,8.63
2019-02-07T16:56:30.681Z,8.55
2019-02-07T16:59:03.981Z,8.49
2019-02-07T17:01:43.826Z,8.48
2019-02-07T17:04:16.565Z,8.49
2019-02-07T17:06:51.763Z,8.49
2019-02-07T17:09:32.406Z,8.45
2019-02-07T17:12:06.195Z,8.40
2019-02-07T17:14:43.611Z,8.36
2019-02-07T17:17:22.499Z,8.30
2019-02-07T17:19:57.994Z,8.16
2019-02-07T17:22:33.368Z,8.11
2019-02-07T17:25:09.470Z,8.03
2019-02-07T17:27:42.281Z,7.99
2019-02-07T17:30:19.172Z,7.95
2019-02-07T17:33:01.762Z,7.84
2019-02-07T17:35:36.932Z,7.75
2019-02-07T17:38:15.235Z,7.68
2019-02-07T17:40:50.039Z,7.71
2019-02-07T17:43:24.524Z,7.73
2019-02-07T17:45:58.211Z,7.74
2019-02-07T17:48:34.152Z,7.77
2019-02-07T17:51:09.454Z,7.79
2019-02-07T17:53:42.815Z,7.76
2019-02-07T17:56:17.390Z,7.78
2019-02-07T17:58:51.573Z,7.81
2019-02-07T18:01:33.211Z,7.80
2019-02-07T18:04:07.673Z,7.78
2019-02-07T18:06:44.821Z,7.78
2019-02-07T18:09:20.376Z,7.80
2019-02-07T18:11:56.555Z,7.80
2019-02-07T18:14:31.750Z,7.81
2019-02-07T18:17:10.345Z,7.92
2019-02-07T18:19:48.684Z,8.01
2019-02-07T18:22:35.503Z,8.06
2019-02-07T18:25:17.451Z,8.06
2019-02-07T18:27:55.160Z,8.08
2019-02-07T18:30:45.444Z,8.10
2019-02-07T18:33:34.987Z,8.14
2019-02-07T18:36:21.711Z,8.14
2019-02-07T18:39:01.552Z,8.10
2019-02-07T18:41:37.412Z,8.08
2019-02-07T18:44:14.054Z,8.08
2019-02-07T18:46:52.857Z,8.03
2019-02-07T18:49:34.303Z,8.02
2019-02-07T18:52:16.736Z,8.02
2019-02-07T18:55:01.923Z,7.99
2019-02-07T18:57:41.397Z,7.93
2019-02-07T19:00:25.664Z,7.89
2019-02-07T19:03:23.340Z,7.85
2019-02-07T19:05:59.708Z,7.82
2019-02-07T19:08:34.661Z,7.78
2019-02-07T19:11:10.142Z,7.76
2019-02-07T19:13:44.327Z,7.71
2019-02-07T19:16:19.898Z,7.64
2019-02-07T19:19:30.286Z,7.59
2019-02-07T19:22:06.949Z,7.58
2019-02-07T19:24:41.161Z,7.58
2019-02-07T19:27:17.351Z,7.59
2019-02-07T19:29:52.606Z,7.59
2019-02-07T19:32:27.559Z,7.60
2019-02-07T19:35:09.195Z,7.61
2019-02-07T19:37:45.686Z,7.58
2019-02-07T19:40:30.981Z,7.59
2019-02-07T19:43:05.137Z,7.58
2019-02-07T19:45:41.356Z,7.55
2019-02-07T19:48:18.404Z,7.51
2019-02-07T19:50:52.335Z,7.48
2019-02-07T19:53:30.708Z,7.46
2019-02-07T19:56:09.643Z,7.49
2019-02-07T19:58:44.334Z,7.51
2019-02-07T20:01:21.798Z,7.47
2019-02-07T20:04:00.945Z,7.45
2019-02-07T20:07:09.217Z,7.41
2019-02-07T20:10:10.091Z,7.41
2019-02-07T20:12:47.290Z,7.40
2019-02-07T20:15:35.192Z,7.39
2019-02-07T20:18:24.901Z,7.37
2019-02-07T20:21:16.388Z,7.35
2019-02-07T20:24:07.243Z,7.33
2019-02-07T20:26:52.906Z,7.32
2019-02-07T20:29:45.302Z,7.31
2019-02-07T20:32:29.208Z,7.32
2019-02-07T20:35:19.313Z,7.32
2019-02-07T20:37:58.423Z,7.33
2019-02-07T20:40:42.759Z,7.34
2019-02-07T20:43:24.563Z,7.32
2019-02-07T20:46:09.852Z,7.31
2019-02-07T20:48:54.777Z,7.28
2019-02-07T20:51:33.259Z,7.25
2019-02-07T20:54:07.589Z,7.23
2019-02-07T20:56:43.922Z,7.24
2019-02-07T20:59:18.556Z,7.24
2019-02-07T21:01:52.849Z,7.25
2019-02-07T21:04:27.889Z,7.26
2019-02-07T21:07:06.928Z,7.27
2019-02-07T21:09:41.981Z,7.28
2019-02-07T21:12:15.761Z,7.25
2019-02-07T21:14:53.266Z,7.27
2019-02-07T21:17:27.439Z,7.28
2019-02-07T21:20:11.586Z,7.28
2019-02-07T21:22:50.738Z,7.28
2019-02-07T21:25:41.464Z,7.29
2019-02-07T21:28:15.837Z,7.31
2019-02-07T21:30:49.713Z,7.30
2019-02-07T21:33:25.891Z,7.31
2019-02-07T21:36:00.448Z,7.32
2019-02-07T21:38:35.760Z,7.32
2019-02-07T21:41:09.194Z,7.33
2019-02-07T21:43:44.342Z,7.33
2019-02-07T21:46:17.734Z,7.32
2019-02-07T21:48:58.445Z,7.32
2019-02-07T21:51:37.016Z,7.32
2019-02-07T21:54:13.106Z,7.30
2019-02-07T21:56:47.418Z,7.29
2019-02-07T21:59:22.979Z,7.28
2019-02-07T22:01:56.607Z,7.30
2019-02-07T22:04:30.065Z,7.31
2019-02-07T22:07:07.548Z,7.30
2019-02-07T22:09:40.510Z,7.31
2019-02-07T22:12:16.053Z,7.31
2019-02-07T22:14:50.344Z,7.31
2019-02-07T22:17:24.514Z,7.29
2019-02-07T22:19:57.333Z,7.28
2019-02-07T22:22:31.321Z,7.24
2019-02-07T22:25:04.925Z,7.24
2019-02-07T22:27:37.716Z,7.23
2019-02-07T22:30:20.680Z,7.21
2019-02-07T22:32:56.520Z,7.20
2019-02-07T22:35:31.053Z,7.20
2019-02-07T22:38:09.357Z,7.21
2019-02-07T22:40:43.731Z,7.22
2019-02-07T22:43:18.066Z,7.23
2019-02-07T22:45:50.913Z,7.24
2019-02-07T22:48:25.177Z,7.23
2019-02-07T22:50:59.669Z,7.22
2019-02-07T22:53:36.323Z,7.21
2019-02-07T22:56:09.984Z,7.20
2019-02-07T22:58:44.099Z,7.18
2019-02-07T23:01:44.150Z,7.15
2019-02-07T23:04:18.132Z,7.16
2019-02-07T23:06:53.621Z,7.14
2019-02-07T23:09:27.892Z,7.14
2019-02-07T23:12:01.517Z,7.13
2019-02-07T23:14:35.367Z,7.10
2019-02-07T23:17:09.177Z,7.08
2019-02-07T23:19:42.867Z,7.07
2019-02-07T23:22:17.366Z,7.06
2019-02-07T23:24:51.113Z,7.05
2019-02-07T23:27:24.579Z,7.04
2019-02-07T23:29:58.464Z,7.04
2019-02-07T23:32:33.114Z,7.02
2019-02-07T23:35:07.042Z,7.02
2019-02-07T23:37:40.949Z,7.01
2019-02-07T23:40:15.462Z,7.00
2019-02-07T23:42:49.145Z,7.00
2019-02-07T23:45:23.174Z,6.98
2019-02-07T23:47:57.076Z,6.96
2019-02-07T23:50:30.648Z,6.94
2019-02-07T23:53:14.061Z,6.91
2019-02-07T23:55:48.876Z,6.89
2019-02-07T23:58:22.326Z,6.88
